sensor_id;sensor_type;location;lat;lon;timestamp;P1;durP1;ratioP1;P2;durP2;ratioP2
8993;SDS011;4532;50.886;4.700;2023-05-14T00:01:34;46.55;;;35.88;;
8993;SDS011;4532;50.886;4.700;2023-05-14T00:04:04;37.72;;;32.63;;
8993;SDS011;4532;50.886;4.700;2023-05-14T00:06:32;37.42;;;31.75;;
8993;SDS011;4532;50.886;4.700;2023-05-14T00:09:04;39.67;;;31.38;;
8993;SDS011;4532;50.886;4.700;2023-05-14T00:11:34;38.15;;;29.70;;
8993;SDS011;4532;50.886;4.700;2023-05-14T00:14:03;39.63;;;32.53;;
8993;SDS011;4532;50.886;4.700;2023-05-14T00:16:30;37.25;;;32.13;;
8993;SDS011;4532;50.886;4.700;2023-05-14T00:19:03;35.78;;;30.98;;
8993;SDS011;4532;50.886;4.700;2023-05-14T00:21:32;36.65;;;29.88;;
8993;SDS011;4532;50.886;4.700;2023-05-14T00:23:59;41.42;;;31.10;;
8993;SDS011;4532;50.886;4.700;2023-05-14T00:26:31;41.58;;;33.42;;
8993;SDS011;4532;50.886;4.700;2023-05-14T00:28:59;37.67;;;30.52;;
8993;SDS011;4532;50.886;4.700;2023-05-14T00:31:28;39.45;;;31.60;;
8993;SDS011;4532;50.886;4.700;2023-05-14T00:34:01;39.78;;;32.15;;
8993;SDS011;4532;50.886;4.700;2023-05-14T00:36:33;45.92;;;34.88;;
8993;SDS011;4532;50.886;4.700;2023-05-14T00:39:02;38.20;;;32.90;;
8993;SDS011;4532;50.886;4.700;2023-05-14T00:41:32;40.53;;;33.83;;
8993;SDS011;4532;50.886;4.700;2023-05-14T00:43:59;44.70;;;33.30;;
8993;SDS011;4532;50.886;4.700;2023-05-14T00:46:31;37.90;;;31.83;;
8993;SDS011;4532;50.886;4.700;2023-05-14T00:48:58;41.25;;;33.72;;
8993;SDS011;4532;50.886;4.700;2023-05-14T00:51:26;42.45;;;34.88;;
8993;SDS011;4532;50.886;4.700;2023-05-14T00:54:00;43.25;;;33.97;;
8993;SDS011;4532;50.886;4.700;2023-05-14T00:56:33;45.93;;;35.00;;
8993;SDS011;4532;50.886;4.700;2023-05-14T00:59:02;41.05;;;34.60;;
8993;SDS011;4532;50.886;4.700;2023-05-14T01:01:34;47.28;;;35.53;;
8993;SDS011;4532;50.886;4.700;2023-05-14T01:04:01;37.88;;;33.78;;
8993;SDS011;4532;50.886;4.700;2023-05-14T01:09:18;43.50;;;37.13;;
8993;SDS011;4532;50.886;4.700;2023-05-14T01:11:59;45.70;;;36.67;;
8993;SDS011;4532;50.886;4.700;2023-05-14T01:14:49;48.50;;;37.45;;
8993;SDS011;4532;50.886;4.700;2023-05-14T01:17:18;47.88;;;37.85;;
8993;SDS011;4532;50.886;4.700;2023-05-14T01:19:50;54.08;;;41.03;;
8993;SDS011;4532;50.886;4.700;2023-05-14T01:22:23;52.05;;;41.97;;
8993;SDS011;4532;50.886;4.700;2023-05-14T01:24:52;52.58;;;39.90;;
8993;SDS011;4532;50.886;4.700;2023-05-14T01:32:53;53.92;;;41.92;;
8993;SDS011;4532;50.886;4.700;2023-05-14T01:35:22;54.20;;;42.47;;
8993;SDS011;4532;50.886;4.700;2023-05-14T01:37:56;56.87;;;43.80;;
8993;SDS011;4532;50.886;4.700;2023-05-14T01:40:29;58.00;;;43.83;;
8993;SDS011;4532;50.886;4.700;2023-05-14T01:43:03;60.58;;;46.67;;
8993;SDS011;4532;50.886;4.700;2023-05-14T01:45:34;59.17;;;43.60;;
8993;SDS011;4532;50.886;4.700;2023-05-14T01:48:05;57.78;;;43.65;;
8993;SDS011;4532;50.886;4.700;2023-05-14T01:50:32;53.63;;;47.78;;
8993;SDS011;4532;50.886;4.700;2023-05-14T01:53:02;55.53;;;44.28;;
8993;SDS011;4532;50.886;4.700;2023-05-14T01:55:31;56.00;;;45.58;;
8993;SDS011;4532;50.886;4.700;2023-05-14T01:58:01;56.50;;;42.33;;
8993;SDS011;4532;50.886;4.700;2023-05-14T02:00:28;55.47;;;42.57;;
8993;SDS011;4532;50.886;4.700;2023-05-14T02:03:00;55.95;;;43.72;;
8993;SDS011;4532;50.886;4.700;2023-05-14T02:05:28;55.30;;;43.73;;
8993;SDS011;4532;50.886;4.700;2023-05-14T02:07:55;60.07;;;45.53;;
8993;SDS011;4532;50.886;4.700;2023-05-14T02:10:25;60.95;;;45.10;;
8993;SDS011;4532;50.886;4.700;2023-05-14T02:12:54;60.63;;;44.87;;
8993;SDS011;4532;50.886;4.700;2023-05-14T02:15:24;53.15;;;43.03;;
8993;SDS011;4532;50.886;4.700;2023-05-14T02:17:51;61.47;;;45.37;;
8993;SDS011;4532;50.886;4.700;2023-05-14T02:20:25;63.17;;;46.23;;
8993;SDS011;4532;50.886;4.700;2023-05-14T02:22:59;66.03;;;47.43;;
8993;SDS011;4532;50.886;4.700;2023-05-14T02:25:29;62.37;;;45.87;;
8993;SDS011;4532;50.886;4.700;2023-05-14T02:27:56;60.13;;;45.27;;
8993;SDS011;4532;50.886;4.700;2023-05-14T02:30:23;57.75;;;44.40;;
8993;SDS011;4532;50.886;4.700;2023-05-14T02:32:53;68.35;;;48.65;;
8993;SDS011;4532;50.886;4.700;2023-05-14T02:35:20;64.35;;;46.00;;
8993;SDS011;4532;50.886;4.700;2023-05-14T02:37:48;64.70;;;45.22;;
8993;SDS011;4532;50.886;4.700;2023-05-14T02:40:20;62.43;;;46.57;;
8993;SDS011;4532;50.886;4.700;2023-05-14T02:42:50;64.63;;;47.83;;
8993;SDS011;4532;50.886;4.700;2023-05-14T02:45:19;64.07;;;46.45;;
8993;SDS011;4532;50.886;4.700;2023-05-14T02:47:49;61.23;;;45.40;;
8993;SDS011;4532;50.886;4.700;2023-05-14T02:50:18;67.15;;;46.95;;
8993;SDS011;4532;50.886;4.700;2023-05-14T02:52:48;64.03;;;47.27;;
8993;SDS011;4532;50.886;4.700;2023-05-14T02:55:17;63.97;;;47.97;;
8993;SDS011;4532;50.886;4.700;2023-05-14T02:57:45;61.10;;;43.20;;
8993;SDS011;4532;50.886;4.700;2023-05-14T03:00:12;58.15;;;43.60;;
8993;SDS011;4532;50.886;4.700;2023-05-14T03:02:45;66.00;;;46.93;;
8993;SDS011;4532;50.886;4.700;2023-05-14T03:05:14;63.23;;;46.27;;
8993;SDS011;4532;50.886;4.700;2023-05-14T03:07:42;60.77;;;45.63;;
8993;SDS011;4532;50.886;4.700;2023-05-14T03:10:09;62.13;;;45.88;;
8993;SDS011;4532;50.886;4.700;2023-05-14T03:12:36;61.90;;;47.50;;
8993;SDS011;4532;50.886;4.700;2023-05-14T03:15:06;65.75;;;46.40;;
8993;SDS011;4532;50.886;4.700;2023-05-14T03:17:36;63.15;;;47.08;;
8993;SDS011;4532;50.886;4.700;2023-05-14T03:20:08;59.72;;;43.58;;
8993;SDS011;4532;50.886;4.700;2023-05-14T03:22:36;59.00;;;42.73;;
8993;SDS011;4532;50.886;4.700;2023-05-14T03:25:03;67.85;;;48.28;;
8993;SDS011;4532;50.886;4.700;2023-05-14T03:27:31;57.80;;;42.93;;
8993;SDS011;4532;50.886;4.700;2023-05-14T03:30:03;58.20;;;42.63;;
8993;SDS011;4532;50.886;4.700;2023-05-14T03:32:33;62.95;;;44.35;;
8993;SDS011;4532;50.886;4.700;2023-05-14T03:35:02;60.72;;;44.50;;
8993;SDS011;4532;50.886;4.700;2023-05-14T03:37:32;67.60;;;45.27;;
8993;SDS011;4532;50.886;4.700;2023-05-14T03:40:02;71.47;;;48.80;;
8993;SDS011;4532;50.886;4.700;2023-05-14T03:42:29;64.95;;;46.85;;
8993;SDS011;4532;50.886;4.700;2023-05-14T03:45:02;59.40;;;44.13;;
8993;SDS011;4532;50.886;4.700;2023-05-14T03:47:32;65.83;;;46.40;;
8993;SDS011;4532;50.886;4.700;2023-05-14T03:49:59;60.83;;;43.70;;
8993;SDS011;4532;50.886;4.700;2023-05-14T03:52:26;62.80;;;45.65;;
8993;SDS011;4532;50.886;4.700;2023-05-14T03:54:58;62.50;;;45.17;;
8993;SDS011;4532;50.886;4.700;2023-05-14T03:57:27;57.00;;;42.97;;
8993;SDS011;4532;50.886;4.700;2023-05-14T03:59:55;61.85;;;42.72;;
8993;SDS011;4532;50.886;4.700;2023-05-14T04:02:22;61.53;;;44.73;;
8993;SDS011;4532;50.886;4.700;2023-05-14T04:04:49;64.00;;;44.83;;
8993;SDS011;4532;50.886;4.700;2023-05-14T04:07:16;64.53;;;44.50;;
8993;SDS011;4532;50.886;4.700;2023-05-14T04:09:44;60.47;;;43.97;;
8993;SDS011;4532;50.886;4.700;2023-05-14T04:12:11;60.78;;;45.05;;
8993;SDS011;4532;50.886;4.700;2023-05-14T04:14:38;64.80;;;46.50;;
8993;SDS011;4532;50.886;4.700;2023-05-14T04:17:07;58.53;;;41.97;;
8993;SDS011;4532;50.886;4.700;2023-05-14T04:19:34;62.67;;;44.10;;
8993;SDS011;4532;50.886;4.700;2023-05-14T04:22:02;67.97;;;47.80;;
8993;SDS011;4532;50.886;4.700;2023-05-14T04:24:32;62.75;;;45.03;;
8993;SDS011;4532;50.886;4.700;2023-05-14T04:26:59;65.00;;;43.73;;
8993;SDS011;4532;50.886;4.700;2023-05-14T04:29:26;65.73;;;45.97;;
8993;SDS011;4532;50.886;4.700;2023-05-14T04:31:55;61.58;;;44.00;;
8993;SDS011;4532;50.886;4.700;2023-05-14T04:34:25;69.68;;;46.90;;
8993;SDS011;4532;50.886;4.700;2023-05-14T04:36:54;66.72;;;46.47;;
8993;SDS011;4532;50.886;4.700;2023-05-14T04:39:26;59.55;;;42.63;;
8993;SDS011;4532;50.886;4.700;2023-05-14T04:41:53;60.88;;;43.17;;
8993;SDS011;4532;50.886;4.700;2023-05-14T04:44:23;56.20;;;40.17;;
8993;SDS011;4532;50.886;4.700;2023-05-14T04:46:50;63.57;;;43.80;;
8993;SDS011;4532;50.886;4.700;2023-05-14T04:49:17;63.57;;;44.60;;
8993;SDS011;4532;50.886;4.700;2023-05-14T04:51:44;61.20;;;43.43;;
8993;SDS011;4532;50.886;4.700;2023-05-14T04:54:13;58.30;;;43.35;;
8993;SDS011;4532;50.886;4.700;2023-05-14T04:56:43;59.50;;;42.28;;
8993;SDS011;4532;50.886;4.700;2023-05-14T04:59:15;62.85;;;42.67;;
8993;SDS011;4532;50.886;4.700;2023-05-14T05:01:45;54.67;;;40.88;;
8993;SDS011;4532;50.886;4.700;2023-05-14T05:04:16;56.95;;;40.42;;
8993;SDS011;4532;50.886;4.700;2023-05-14T05:06:46;56.03;;;38.77;;
8993;SDS011;4532;50.886;4.700;2023-05-14T05:09:13;61.35;;;42.97;;
8993;SDS011;4532;50.886;4.700;2023-05-14T05:11:43;52.60;;;39.60;;
8993;SDS011;4532;50.886;4.700;2023-05-14T05:14:16;53.40;;;38.92;;
8993;SDS011;4532;50.886;4.700;2023-05-14T05:16:45;59.42;;;41.00;;
8993;SDS011;4532;50.886;4.700;2023-05-14T05:19:14;60.65;;;41.92;;
8993;SDS011;4532;50.886;4.700;2023-05-14T05:21:52;60.07;;;41.93;;
8993;SDS011;4532;50.886;4.700;2023-05-14T05:24:24;58.42;;;40.92;;
8993;SDS011;4532;50.886;4.700;2023-05-14T05:26:51;62.87;;;42.40;;
8993;SDS011;4532;50.886;4.700;2023-05-14T05:29:21;55.53;;;41.10;;
8993;SDS011;4532;50.886;4.700;2023-05-14T05:31:50;59.20;;;39.63;;
8993;SDS011;4532;50.886;4.700;2023-05-14T05:34:19;58.90;;;41.03;;
8993;SDS011;4532;50.886;4.700;2023-05-14T05:36:47;53.53;;;39.55;;
8993;SDS011;4532;50.886;4.700;2023-05-14T05:39:17;58.88;;;41.75;;
8993;SDS011;4532;50.886;4.700;2023-05-14T05:41:46;57.97;;;39.30;;
8993;SDS011;4532;50.886;4.700;2023-05-14T05:44:13;54.13;;;37.17;;
8993;SDS011;4532;50.886;4.700;2023-05-14T05:46:40;52.83;;;40.22;;
8993;SDS011;4532;50.886;4.700;2023-05-14T05:49:10;59.37;;;41.83;;
8993;SDS011;4532;50.886;4.700;2023-05-14T05:51:37;60.20;;;42.25;;
8993;SDS011;4532;50.886;4.700;2023-05-14T05:54:04;54.37;;;39.77;;
8993;SDS011;4532;50.886;4.700;2023-05-14T05:56:33;51.47;;;38.60;;
8993;SDS011;4532;50.886;4.700;2023-05-14T05:59:03;54.45;;;38.00;;
8993;SDS011;4532;50.886;4.700;2023-05-14T06:01:32;55.35;;;39.33;;
8993;SDS011;4532;50.886;4.700;2023-05-14T06:03:59;52.60;;;38.72;;
8993;SDS011;4532;50.886;4.700;2023-05-14T06:06:27;56.30;;;38.10;;
8993;SDS011;4532;50.886;4.700;2023-05-14T06:08:58;52.78;;;38.28;;
8993;SDS011;4532;50.886;4.700;2023-05-14T06:11:27;55.97;;;39.17;;
8993;SDS011;4532;50.886;4.700;2023-05-14T06:13:56;55.60;;;40.57;;
8993;SDS011;4532;50.886;4.700;2023-05-14T06:16:24;49.87;;;37.40;;
8993;SDS011;4532;50.886;4.700;2023-05-14T06:18:53;51.35;;;38.08;;
8993;SDS011;4532;50.886;4.700;2023-05-14T06:21:21;53.63;;;37.37;;
8993;SDS011;4532;50.886;4.700;2023-05-14T06:23:48;51.70;;;36.70;;
8993;SDS011;4532;50.886;4.700;2023-05-14T06:26:15;53.90;;;38.28;;
8993;SDS011;4532;50.886;4.700;2023-05-14T06:28:43;47.05;;;35.15;;
8993;SDS011;4532;50.886;4.700;2023-05-14T06:31:12;49.58;;;36.97;;
8993;SDS011;4532;50.886;4.700;2023-05-14T06:33:39;52.30;;;38.03;;
8993;SDS011;4532;50.886;4.700;2023-05-14T06:36:07;53.63;;;37.58;;
8993;SDS011;4532;50.886;4.700;2023-05-14T06:38:36;56.63;;;39.50;;
8993;SDS011;4532;50.886;4.700;2023-05-14T06:41:03;45.20;;;35.78;;
8993;SDS011;4532;50.886;4.700;2023-05-14T06:43:31;49.17;;;34.80;;
8993;SDS011;4532;50.886;4.700;2023-05-14T06:45:58;52.58;;;37.42;;
8993;SDS011;4532;50.886;4.700;2023-05-14T06:48:28;58.45;;;39.67;;
8993;SDS011;4532;50.886;4.700;2023-05-14T06:50:56;51.03;;;36.65;;
8993;SDS011;4532;50.886;4.700;2023-05-14T06:53:25;51.35;;;36.75;;
8993;SDS011;4532;50.886;4.700;2023-05-14T06:55:55;47.67;;;35.00;;
8993;SDS011;4532;50.886;4.700;2023-05-14T06:58:24;52.15;;;37.35;;
8993;SDS011;4532;50.886;4.700;2023-05-14T07:00:52;53.22;;;37.22;;
8993;SDS011;4532;50.886;4.700;2023-05-14T07:03:21;48.42;;;36.35;;
8993;SDS011;4532;50.886;4.700;2023-05-14T07:05:50;52.10;;;36.47;;
8993;SDS011;4532;50.886;4.700;2023-05-14T07:08:20;57.35;;;37.92;;
8993;SDS011;4532;50.886;4.700;2023-05-14T07:10:49;47.13;;;35.93;;
8993;SDS011;4532;50.886;4.700;2023-05-14T07:13:16;51.63;;;37.07;;
8993;SDS011;4532;50.886;4.700;2023-05-14T07:15:43;53.47;;;35.65;;
8993;SDS011;4532;50.886;4.700;2023-05-14T07:18:10;49.63;;;36.67;;
8993;SDS011;4532;50.886;4.700;2023-05-14T07:20:38;48.63;;;34.30;;
8993;SDS011;4532;50.886;4.700;2023-05-14T07:23:05;46.22;;;34.00;;
8993;SDS011;4532;50.886;4.700;2023-05-14T07:25:35;56.10;;;37.25;;
8993;SDS011;4532;50.886;4.700;2023-05-14T07:28:02;50.08;;;36.28;;
8993;SDS011;4532;50.886;4.700;2023-05-14T07:30:34;51.87;;;38.00;;
8993;SDS011;4532;50.886;4.700;2023-05-14T07:33:04;49.20;;;35.90;;
8993;SDS011;4532;50.886;4.700;2023-05-14T07:35:36;55.60;;;39.08;;
8993;SDS011;4532;50.886;4.700;2023-05-14T07:38:06;53.53;;;39.15;;
8993;SDS011;4532;50.886;4.700;2023-05-14T07:40:33;51.38;;;38.35;;
8993;SDS011;4532;50.886;4.700;2023-05-14T07:43:00;57.45;;;38.92;;
8993;SDS011;4532;50.886;4.700;2023-05-14T07:45:27;52.45;;;38.45;;
8993;SDS011;4532;50.886;4.700;2023-05-14T07:47:57;56.65;;;38.45;;
8993;SDS011;4532;50.886;4.700;2023-05-14T07:50:24;57.13;;;39.88;;
8993;SDS011;4532;50.886;4.700;2023-05-14T07:52:52;50.22;;;35.00;;
8993;SDS011;4532;50.886;4.700;2023-05-14T07:55:21;53.83;;;38.43;;
8993;SDS011;4532;50.886;4.700;2023-05-14T07:57:53;65.07;;;41.35;;
8993;SDS011;4532;50.886;4.700;2023-05-14T08:00:21;54.55;;;38.75;;
8993;SDS011;4532;50.886;4.700;2023-05-14T08:02:53;57.38;;;40.00;;
8993;SDS011;4532;50.886;4.700;2023-05-14T08:05:26;58.13;;;40.53;;
8993;SDS011;4532;50.886;4.700;2023-05-14T08:07:55;58.38;;;40.13;;
8993;SDS011;4532;50.886;4.700;2023-05-14T08:10:22;55.60;;;38.83;;
8993;SDS011;4532;50.886;4.700;2023-05-14T08:12:50;58.70;;;37.72;;
8993;SDS011;4532;50.886;4.700;2023-05-14T08:15:19;56.08;;;39.95;;
8993;SDS011;4532;50.886;4.700;2023-05-14T08:17:46;55.65;;;40.08;;
8993;SDS011;4532;50.886;4.700;2023-05-14T08:20:14;51.95;;;36.95;;
8993;SDS011;4532;50.886;4.700;2023-05-14T08:22:41;49.10;;;36.83;;
8993;SDS011;4532;50.886;4.700;2023-05-14T08:25:08;54.10;;;37.10;;
8993;SDS011;4532;50.886;4.700;2023-05-14T08:27:35;57.42;;;39.75;;
8993;SDS011;4532;50.886;4.700;2023-05-14T08:30:03;55.90;;;39.85;;
8993;SDS011;4532;50.886;4.700;2023-05-14T08:32:34;56.70;;;40.20;;
8993;SDS011;4532;50.886;4.700;2023-05-14T08:35:05;51.25;;;36.97;;
8993;SDS011;4532;50.886;4.700;2023-05-14T08:37:35;53.50;;;40.30;;
8993;SDS011;4532;50.886;4.700;2023-05-14T08:40:02;56.67;;;41.05;;
8993;SDS011;4532;50.886;4.700;2023-05-14T08:42:33;64.38;;;42.88;;
8993;SDS011;4532;50.886;4.700;2023-05-14T08:45:03;57.03;;;42.70;;
8993;SDS011;4532;50.886;4.700;2023-05-14T08:47:36;59.22;;;41.08;;
8993;SDS011;4532;50.886;4.700;2023-05-14T08:52:32;58.05;;;41.90;;
8993;SDS011;4532;50.886;4.700;2023-05-14T08:55:02;55.20;;;42.40;;
8993;SDS011;4532;50.886;4.700;2023-05-14T08:57:35;61.85;;;43.45;;
8993;SDS011;4532;50.886;4.700;2023-05-14T09:00:10;56.83;;;41.40;;
8993;SDS011;4532;50.886;4.700;2023-05-14T09:02:41;57.22;;;43.38;;
8993;SDS011;4532;50.886;4.700;2023-05-14T09:05:10;50.15;;;40.17;;
8993;SDS011;4532;50.886;4.700;2023-05-14T09:07:39;51.63;;;39.92;;
8993;SDS011;4532;50.886;4.700;2023-05-14T09:10:09;50.40;;;40.28;;
8993;SDS011;4532;50.886;4.700;2023-05-14T09:12:47;54.47;;;40.60;;
8993;SDS011;4532;50.886;4.700;2023-05-14T09:15:16;49.47;;;39.45;;
8993;SDS011;4532;50.886;4.700;2023-05-14T09:17:48;49.88;;;39.10;;
8993;SDS011;4532;50.886;4.700;2023-05-14T09:20:18;53.25;;;40.15;;
8993;SDS011;4532;50.886;4.700;2023-05-14T09:22:45;52.20;;;40.78;;
8993;SDS011;4532;50.886;4.700;2023-05-14T09:25:12;55.15;;;40.35;;
8993;SDS011;4532;50.886;4.700;2023-05-14T09:27:40;48.45;;;38.47;;
8993;SDS011;4532;50.886;4.700;2023-05-14T09:30:10;45.97;;;37.78;;
8993;SDS011;4532;50.886;4.700;2023-05-14T09:32:41;50.78;;;40.65;;
8993;SDS011;4532;50.886;4.700;2023-05-14T09:35:12;50.67;;;40.63;;
8993;SDS011;4532;50.886;4.700;2023-05-14T09:37:46;47.20;;;41.03;;
8993;SDS011;4532;50.886;4.700;2023-05-14T09:40:15;47.65;;;38.22;;
8993;SDS011;4532;50.886;4.700;2023-05-14T09:42:44;51.70;;;40.92;;
8993;SDS011;4532;50.886;4.700;2023-05-14T09:45:17;47.90;;;39.17;;
8993;SDS011;4532;50.886;4.700;2023-05-14T09:47:47;48.25;;;38.83;;
8993;SDS011;4532;50.886;4.700;2023-05-14T09:50:14;45.38;;;40.08;;
8993;SDS011;4532;50.886;4.700;2023-05-14T09:52:46;44.67;;;37.22;;
8993;SDS011;4532;50.886;4.700;2023-05-14T09:55:13;45.00;;;36.25;;
8993;SDS011;4532;50.886;4.700;2023-05-14T09:57:44;45.47;;;38.47;;
8993;SDS011;4532;50.886;4.700;2023-05-14T10:00:11;41.80;;;36.90;;
8993;SDS011;4532;50.886;4.700;2023-05-14T10:02:38;39.30;;;34.92;;
8993;SDS011;4532;50.886;4.700;2023-05-14T10:05:08;39.72;;;35.42;;
8993;SDS011;4532;50.886;4.700;2023-05-14T10:07:38;42.45;;;36.78;;
8993;SDS011;4532;50.886;4.700;2023-05-14T10:10:09;44.53;;;36.78;;
8993;SDS011;4532;50.886;4.700;2023-05-14T10:12:44;49.80;;;40.00;;
8993;SDS011;4532;50.886;4.700;2023-05-14T10:15:19;46.28;;;38.50;;
8993;SDS011;4532;50.886;4.700;2023-05-14T10:17:55;49.20;;;41.63;;
8993;SDS011;4532;50.886;4.700;2023-05-14T10:20:24;41.88;;;37.33;;
8993;SDS011;4532;50.886;4.700;2023-05-14T10:22:56;44.30;;;36.53;;
8993;SDS011;4532;50.886;4.700;2023-05-14T10:25:26;47.75;;;39.42;;
8993;SDS011;4532;50.886;4.700;2023-05-14T10:27:54;45.83;;;39.83;;
8993;SDS011;4532;50.886;4.700;2023-05-14T10:30:25;44.90;;;38.50;;
8993;SDS011;4532;50.886;4.700;2023-05-14T10:33:07;46.17;;;37.85;;
8993;SDS011;4532;50.886;4.700;2023-05-14T10:38:26;42.33;;;37.58;;
8993;SDS011;4532;50.886;4.700;2023-05-14T10:43:38;46.58;;;39.83;;
8993;SDS011;4532;50.886;4.700;2023-05-14T10:46:06;41.53;;;36.10;;
8993;SDS011;4532;50.886;4.700;2023-05-14T10:48:35;40.67;;;35.95;;
8993;SDS011;4532;50.886;4.700;2023-05-14T10:51:05;44.70;;;37.20;;
8993;SDS011;4532;50.886;4.700;2023-05-14T10:53:41;43.55;;;38.25;;
8993;SDS011;4532;50.886;4.700;2023-05-14T10:56:11;47.83;;;38.38;;
8993;SDS011;4532;50.886;4.700;2023-05-14T10:58:45;41.95;;;36.05;;
8993;SDS011;4532;50.886;4.700;2023-05-14T11:01:18;41.55;;;37.05;;
8993;SDS011;4532;50.886;4.700;2023-05-14T11:03:52;47.50;;;39.80;;
8993;SDS011;4532;50.886;4.700;2023-05-14T11:06:19;41.47;;;36.47;;
8993;SDS011;4532;50.886;4.700;2023-05-14T11:08:46;42.15;;;37.53;;
8993;SDS011;4532;50.886;4.700;2023-05-14T11:11:16;41.53;;;34.75;;
8993;SDS011;4532;50.886;4.700;2023-05-14T11:13:47;38.53;;;34.35;;
8993;SDS011;4532;50.886;4.700;2023-05-14T11:16:15;41.72;;;35.17;;
8993;SDS011;4532;50.886;4.700;2023-05-14T11:18:56;40.65;;;35.17;;
8993;SDS011;4532;50.886;4.700;2023-05-14T11:21:28;40.10;;;35.72;;
8993;SDS011;4532;50.886;4.700;2023-05-14T11:23:59;39.15;;;34.95;;
8993;SDS011;4532;50.886;4.700;2023-05-14T11:26:26;39.22;;;34.92;;
8993;SDS011;4532;50.886;4.700;2023-05-14T11:28:54;40.80;;;36.30;;
8993;SDS011;4532;50.886;4.700;2023-05-14T11:31:26;40.45;;;36.22;;
8993;SDS011;4532;50.886;4.700;2023-05-14T11:33:55;36.88;;;32.92;;
8993;SDS011;4532;50.886;4.700;2023-05-14T11:36:25;37.30;;;33.30;;
8993;SDS011;4532;50.886;4.700;2023-05-14T11:38:52;38.67;;;33.58;;
8993;SDS011;4532;50.886;4.700;2023-05-14T11:41:23;43.15;;;36.47;;
8993;SDS011;4532;50.886;4.700;2023-05-14T11:43:56;40.05;;;35.72;;
8993;SDS011;4532;50.886;4.700;2023-05-14T11:46:23;46.50;;;39.38;;
8993;SDS011;4532;50.886;4.700;2023-05-14T11:48:51;36.28;;;32.33;;
8993;SDS011;4532;50.886;4.700;2023-05-14T11:51:18;36.85;;;33.03;;
8993;SDS011;4532;50.886;4.700;2023-05-14T11:53:47;37.40;;;33.40;;
8993;SDS011;4532;50.886;4.700;2023-05-14T11:56:14;40.17;;;35.20;;
8993;SDS011;4532;50.886;4.700;2023-05-14T11:58:47;40.67;;;35.85;;
8993;SDS011;4532;50.886;4.700;2023-05-14T12:01:15;40.25;;;35.55;;
8993;SDS011;4532;50.886;4.700;2023-05-14T12:03:44;36.53;;;32.58;;
8993;SDS011;4532;50.886;4.700;2023-05-14T12:06:12;36.53;;;32.50;;
8993;SDS011;4532;50.886;4.700;2023-05-14T12:08:39;39.78;;;35.50;;
8993;SDS011;4532;50.886;4.700;2023-05-14T12:11:06;43.22;;;38.03;;
8993;SDS011;4532;50.886;4.700;2023-05-14T12:13:37;39.35;;;33.75;;
8993;SDS011;4532;50.886;4.700;2023-05-14T12:16:08;36.47;;;32.83;;
8993;SDS011;4532;50.886;4.700;2023-05-14T12:18:40;35.55;;;31.85;;
8993;SDS011;4532;50.886;4.700;2023-05-14T12:21:11;35.80;;;32.10;;
8993;SDS011;4532;50.886;4.700;2023-05-14T12:23:38;37.00;;;33.13;;
8993;SDS011;4532;50.886;4.700;2023-05-14T12:26:08;37.92;;;33.45;;
8993;SDS011;4532;50.886;4.700;2023-05-14T12:28:40;36.80;;;32.80;;
8993;SDS011;4532;50.886;4.700;2023-05-14T12:31:15;33.83;;;30.42;;
8993;SDS011;4532;50.886;4.700;2023-05-14T12:33:42;34.53;;;30.92;;
8993;SDS011;4532;50.886;4.700;2023-05-14T12:36:14;34.83;;;31.10;;
8993;SDS011;4532;50.886;4.700;2023-05-14T12:38:56;36.88;;;31.98;;
8993;SDS011;4532;50.886;4.700;2023-05-14T12:41:31;34.15;;;30.38;;
8993;SDS011;4532;50.886;4.700;2023-05-14T12:43:59;36.97;;;31.52;;
8993;SDS011;4532;50.886;4.700;2023-05-14T12:46:29;34.38;;;30.73;;
8993;SDS011;4532;50.886;4.700;2023-05-14T12:48:59;36.53;;;31.63;;
8993;SDS011;4532;50.886;4.700;2023-05-14T12:51:28;32.90;;;29.52;;
8993;SDS011;4532;50.886;4.700;2023-05-14T12:53:56;32.25;;;28.95;;
8993;SDS011;4532;50.886;4.700;2023-05-14T12:56:25;35.30;;;31.20;;
8993;SDS011;4532;50.886;4.700;2023-05-14T12:58:54;34.55;;;31.00;;
8993;SDS011;4532;50.886;4.700;2023-05-14T13:01:24;32.78;;;29.40;;
8993;SDS011;4532;50.886;4.700;2023-05-14T13:03:51;33.50;;;29.80;;
8993;SDS011;4532;50.886;4.700;2023-05-14T13:06:24;33.70;;;29.25;;
8993;SDS011;4532;50.886;4.700;2023-05-14T13:08:54;29.40;;;25.95;;
8993;SDS011;4532;50.886;4.700;2023-05-14T13:11:22;29.10;;;26.10;;
8993;SDS011;4532;50.886;4.700;2023-05-14T13:13:52;29.70;;;26.55;;
8993;SDS011;4532;50.886;4.700;2023-05-14T13:16:19;33.80;;;29.13;;
8993;SDS011;4532;50.886;4.700;2023-05-14T13:18:49;30.80;;;27.52;;
8993;SDS011;4532;50.886;4.700;2023-05-14T13:21:18;25.02;;;22.42;;
8993;SDS011;4532;50.886;4.700;2023-05-14T13:23:46;28.70;;;25.88;;
8993;SDS011;4532;50.886;4.700;2023-05-14T13:26:14;32.95;;;28.13;;
8993;SDS011;4532;50.886;4.700;2023-05-14T13:28:41;29.75;;;25.17;;
8993;SDS011;4532;50.886;4.700;2023-05-14T13:31:14;26.58;;;23.80;;
8993;SDS011;4532;50.886;4.700;2023-05-14T13:33:42;27.25;;;24.45;;
8993;SDS011;4532;50.886;4.700;2023-05-14T13:36:13;27.08;;;24.42;;
8993;SDS011;4532;50.886;4.700;2023-05-14T13:38:43;26.77;;;24.08;;
8993;SDS011;4532;50.886;4.700;2023-05-14T13:41:13;26.25;;;23.60;;
8993;SDS011;4532;50.886;4.700;2023-05-14T13:43:42;29.10;;;25.58;;
8993;SDS011;4532;50.886;4.700;2023-05-14T13:46:10;26.73;;;22.48;;
8993;SDS011;4532;50.886;4.700;2023-05-14T13:48:39;27.58;;;24.65;;
8993;SDS011;4532;50.886;4.700;2023-05-14T13:51:08;25.73;;;23.05;;
8993;SDS011;4532;50.886;4.700;2023-05-14T13:53:38;32.05;;;25.38;;
8993;SDS011;4532;50.886;4.700;2023-05-14T13:56:05;23.92;;;21.42;;
8993;SDS011;4532;50.886;4.700;2023-05-14T13:58:36;26.38;;;23.77;;
8993;SDS011;4532;50.886;4.700;2023-05-14T14:01:05;27.73;;;24.75;;
8993;SDS011;4532;50.886;4.700;2023-05-14T14:03:33;24.13;;;21.65;;
8993;SDS011;4532;50.886;4.700;2023-05-14T14:06:02;22.65;;;20.25;;
8993;SDS011;4532;50.886;4.700;2023-05-14T14:08:30;23.55;;;20.80;;
8993;SDS011;4532;50.886;4.700;2023-05-14T14:10:57;26.35;;;23.55;;
8993;SDS011;4532;50.886;4.700;2023-05-14T14:13:26;25.75;;;22.67;;
8993;SDS011;4532;50.886;4.700;2023-05-14T14:15:58;25.90;;;23.20;;
8993;SDS011;4532;50.886;4.700;2023-05-14T14:18:25;23.35;;;20.95;;
8993;SDS011;4532;50.886;4.700;2023-05-14T14:20:53;27.45;;;22.50;;
8993;SDS011;4532;50.886;4.700;2023-05-14T14:23:23;24.80;;;22.17;;
8993;SDS011;4532;50.886;4.700;2023-05-14T14:25:52;21.45;;;19.15;;
8993;SDS011;4532;50.886;4.700;2023-05-14T14:28:19;22.98;;;20.75;;
8993;SDS011;4532;50.886;4.700;2023-05-14T14:30:49;23.42;;;21.02;;
8993;SDS011;4532;50.886;4.700;2023-05-14T14:33:16;22.83;;;20.42;;
8993;SDS011;4532;50.886;4.700;2023-05-14T14:35:43;24.17;;;21.30;;
8993;SDS011;4532;50.886;4.700;2023-05-14T14:38:10;19.58;;;17.65;;
8993;SDS011;4532;50.886;4.700;2023-05-14T14:40:40;22.38;;;19.60;;
8993;SDS011;4532;50.886;4.700;2023-05-14T14:43:09;23.75;;;20.05;;
8993;SDS011;4532;50.886;4.700;2023-05-14T14:45:39;20.48;;;18.20;;
8993;SDS011;4532;50.886;4.700;2023-05-14T14:48:29;25.80;;;19.88;;
8993;SDS011;4532;50.886;4.700;2023-05-14T14:51:03;19.10;;;17.08;;
8993;SDS011;4532;50.886;4.700;2023-05-14T14:53:33;19.85;;;17.75;;
8993;SDS011;4532;50.886;4.700;2023-05-14T14:56:02;20.20;;;17.10;;
8993;SDS011;4532;50.886;4.700;2023-05-14T14:58:32;18.95;;;16.38;;
8993;SDS011;4532;50.886;4.700;2023-05-14T15:01:04;19.42;;;17.25;;
8993;SDS011;4532;50.886;4.700;2023-05-14T15:03:31;17.98;;;14.88;;
8993;SDS011;4532;50.886;4.700;2023-05-14T15:05:58;18.02;;;15.07;;
8993;SDS011;4532;50.886;4.700;2023-05-14T15:08:26;16.83;;;14.93;;
8993;SDS011;4532;50.886;4.700;2023-05-14T15:10:54;15.60;;;13.52;;
8993;SDS011;4532;50.886;4.700;2023-05-14T15:13:22;17.63;;;15.13;;
8993;SDS011;4532;50.886;4.700;2023-05-14T15:15:52;18.40;;;14.57;;
8993;SDS011;4532;50.886;4.700;2023-05-14T15:18:19;18.33;;;15.13;;